Time;durP1;ratioP1;P1;durP2;ratioP2;P2;SDS_P1;SDS_P2;PMS_P1;PMS_P2;Temp;Humidity;BMP_temperature;BMP_pressure;BME280_temperature;BME280_humidity;BME280_pressure;Samples;Min_cycle;Max_cycle;Signal;HPM_P1;HPM_P2
2024/03/20 00:00:31;;;;;;;3.73;2.80;;;4.80;99.90;;;;;;2062288;28;20233;-64
2024/03/20 00:01:32;;;;;;;3.83;3.27;;;4.80;99.90;;;;;;2053899;28;20231;-63
2024/03/20 00:02:33;;;;;;;5.07;3.22;;;4.80;99.90;;;;;;2045552;28;20244;-64
2024/03/20 00:03:34;;;;;;;5.20;3.03;;;4.80;99.90;;;;;;2045557;28;20679;-64
2024/03/20 00:04:34;;;;;;;5.00;3.10;;;4.80;99.90;;;;;;2046171;28;20607;-65
2024/03/20 00:05:35;;;;;;;3.23;2.90;;;4.80;99.90;;;;;;2046777;28;20238;-63
2024/03/20 00:06:36;;;;;;;4.77;3.40;;;4.70;99.90;;;;;;2053820;28;20265;-63
2024/03/20 00:07:37;;;;;;;4.43;2.70;;;4.70;99.90;;;;;;2045543;28;20231;-62
2024/03/20 00:08:37;;;;;;;3.93;3.17;;;4.70;99.90;;;;;;2045768;28;20235;-63
2024/03/20 00:09:38;;;;;;;3.93;2.97;;;4.70;99.90;;;;;;2046388;28;20227;-64
2024/03/20 00:10:39;;;;;;;3.07;2.40;;;4.70;99.90;;;;;;2045653;28;20259;-63
2024/03/20 00:11:39;;;;;;;4.57;3.40;;;4.70;99.90;;;;;;2063062;28;20376;-64
2024/03/20 00:12:41;;;;;;;4.07;3.07;;;4.70;99.90;;;;;;2062149;28;20587;-64
2024/03/20 00:13:42;;;;;;;4.13;2.40;;;4.70;99.90;;;;;;2062398;28;20234;-64
2024/03/20 00:14:43;;;;;;;5.88;2.92;;;4.60;99.90;;;;;;2062026;28;20235;-63
2024/03/20 00:15:44;;;;;;;4.30;3.53;;;4.60;99.90;;;;;;2049824;28;20234;-65
2024/03/20 00:16:45;;;;;;;3.53;2.83;;;4.70;99.90;;;;;;2053398;28;20964;-64
2024/03/20 00:17:49;;;;;;;3.63;3.08;;;4.70;99.90;;;;;;2061689;28;20276;-64
2024/03/20 00:18:50;;;;;;;4.78;2.97;;;4.70;99.90;;;;;;2058980;28;20281;-65
2024/03/20 00:19:51;;;;;;;3.70;2.67;;;4.60;99.90;;;;;;2053486;28;20230;-63
2024/03/20 00:20:51;;;;;;;3.37;2.60;;;4.60;99.90;;;;;;2053595;28;20717;-63
2024/03/20 00:21:52;;;;;;;3.70;2.60;;;4.60;99.90;;;;;;2050173;28;20231;-64
2024/03/20 00:22:53;;;;;;;2.73;2.30;;;4.50;99.90;;;;;;2045703;28;20247;-65
2024/03/20 00:23:53;;;;;;;3.30;2.23;;;4.50;99.90;;;;;;2053896;28;20223;-65
2024/03/20 00:24:54;;;;;;;2.53;2.27;;;4.50;99.90;;;;;;2061978;28;20650;-65
2024/03/20 00:25:55;;;;;;;2.57;2.37;;;4.50;99.90;;;;;;2054177;28;20238;-63
2024/03/20 00:26:55;;;;;;;3.07;2.70;;;4.50;99.90;;;;;;2046199;28;20297;-65
2024/03/20 00:27:56;;;;;;;4.10;3.00;;;4.50;99.90;;;;;;2054096;28;20226;-64
2024/03/20 00:28:57;;;;;;;3.43;2.70;;;4.50;99.90;;;;;;2062309;28;20234;-64
2024/03/20 00:29:59;;;;;;;4.73;3.23;;;4.50;99.90;;;;;;2062215;28;20238;-65
2024/03/20 00:31:01;;;;;;;2.95;2.60;;;4.40;99.90;;;;;;2062445;28;20258;-66
2024/03/20 00:32:03;;;;;;;3.95;3.20;;;4.40;99.90;;;;;;2060727;28;20246;-63
2024/03/20 00:33:04;;;;;;;4.38;2.90;;;4.40;99.90;;;;;;2061859;28;20187;-65
2024/03/20 00:34:05;;;;;;;3.85;3.10;;;4.40;99.90;;;;;;2061741;28;20186;-63
2024/03/20 00:35:08;;;;;;;4.37;3.40;;;4.40;99.90;;;;;;2062248;28;20202;-63
2024/03/20 00:36:09;;;;;;;4.20;3.28;;;4.40;99.90;;;;;;2061995;28;20203;-64
2024/03/20 00:37:09;;;;;;;3.70;3.20;;;4.40;99.90;;;;;;2062958;28;20190;-64
2024/03/20 00:38:10;;;;;;;4.47;2.77;;;4.40;99.90;;;;;;2054092;28;20199;-64
2024/03/20 00:39:11;;;;;;;3.87;2.80;;;4.40;99.90;;;;;;2053625;28;20183;-64
2024/03/20 00:40:12;;;;;;;2.87;2.47;;;4.40;99.90;;;;;;2061738;28;20597;-63
2024/03/20 00:41:13;;;;;;;4.47;2.80;;;4.30;99.90;;;;;;2060716;28;20623;-64
2024/03/20 00:42:14;;;;;;;3.15;2.70;;;4.40;99.90;;;;;;2056437;28;20210;-64
2024/03/20 00:43:14;;;;;;;3.73;3.20;;;4.40;99.90;;;;;;2058484;28;20740;-64
2024/03/20 00:44:15;;;;;;;4.00;3.30;;;4.40;99.90;;;;;;2063143;28;20657;-64
2024/03/20 00:45:16;;;;;;;3.63;2.80;;;4.40;99.90;;;;;;2063478;28;20273;-64
2024/03/20 00:46:16;;;;;;;3.80;2.80;;;4.40;99.90;;;;;;2063046;28;20190;-64
2024/03/20 00:47:18;;;;;;;3.93;3.03;;;4.30;99.90;;;;;;2063702;28;20182;-62
2024/03/20 00:48:19;;;;;;;5.07;3.22;;;4.30;99.90;;;;;;2055110;28;20266;-65
2024/03/20 00:49:20;;;;;;;3.50;2.70;;;4.40;99.90;;;;;;2054922;28;20678;-63
2024/03/20 00:50:20;;;;;;;3.27;2.97;;;4.30;99.90;;;;;;2063547;28;20237;-64
2024/03/20 00:51:21;;;;;;;4.03;3.03;;;4.30;99.90;;;;;;2063111;28;20242;-62
2024/03/20 00:52:22;;;;;;;4.40;2.77;;;4.40;99.90;;;;;;2054956;28;20238;-64
2024/03/20 00:53:23;;;;;;;5.40;3.37;;;4.30;99.90;;;;;;2052852;28;20226;-63
2024/03/20 00:54:24;;;;;;;4.03;3.40;;;4.30;99.90;;;;;;2057233;28;20832;-63
2024/03/20 00:55:24;;;;;;;4.90;3.40;;;4.30;99.90;;;;;;2055426;28;20272;-64
2024/03/20 00:56:26;;;;;;;4.97;3.23;;;4.30;99.90;;;;;;2055295;28;20500;-64
2024/03/20 00:57:26;;;;;;;4.07;2.95;;;4.30;99.90;;;;;;2064973;28;20237;-64
2024/03/20 00:58:30;;;;;;;4.20;3.20;;;4.30;99.90;;;;;;2065168;28;20636;-64
2024/03/20 00:59:30;;;;;;;3.42;2.85;;;4.30;99.90;;;;;;2068508;28;20234;-63
2024/03/20 01:00:31;;;;;;;5.50;4.07;;;4.30;99.90;;;;;;2064637;28;20318;-64
2024/03/20 01:01:32;;;;;;;5.47;3.27;;;4.30;99.90;;;;;;2068398;28;20230;-65
2024/03/20 01:02:32;;;;;;;6.00;3.83;;;4.30;99.90;;;;;;2068202;28;20233;-65
2024/03/20 01:03:33;;;;;;;4.37;3.40;;;4.40;99.90;;;;;;2065359;28;20261;-64
2024/03/20 01:04:34;;;;;;;4.77;3.57;;;4.30;99.90;;;;;;2065425;28;20261;-62
2024/03/20 01:05:35;;;;;;;6.90;3.63;;;4.30;99.90;;;;;;2065226;28;20222;-64
2024/03/20 01:06:35;;;;;;;5.40;3.50;;;4.30;99.90;;;;;;2065184;28;20229;-65
2024/03/20 01:07:36;;;;;;;5.27;3.20;;;4.30;99.90;;;;;;2065086;28;20578;-64
2024/03/20 01:08:40;;;;;;;6.10;3.10;;;4.30;99.90;;;;;;2056612;28;20231;-64
2024/03/20 01:09:40;;;;;;;4.05;3.45;;;4.30;99.90;;;;;;2048589;28;20270;-64
2024/03/20 01:10:41;;;;;;;3.67;2.83;;;4.40;99.90;;;;;;2056106;28;20909;-64
2024/03/20 01:11:42;;;;;;;3.90;2.88;;;4.30;99.90;;;;;;2061266;28;20261;-63
2024/03/20 01:12:43;;;;;;;6.43;3.40;;;4.30;99.90;;;;;;2064331;28;20238;-64
2024/03/20 01:13:43;;;;;;;4.40;3.00;;;4.30;99.90;;;;;;2064123;28;20609;-64
2024/03/20 01:14:45;;;;;;;4.70;3.27;;;4.30;99.90;;;;;;2055383;28;20230;-63
2024/03/20 01:15:45;;;;;;;6.43;4.30;;;4.40;99.90;;;;;;2054791;28;20684;-64
2024/03/20 01:16:48;;;;;;;6.63;4.10;;;4.30;99.90;;;;;;2055430;28;20322;-64
2024/03/20 01:17:49;;;;;;;5.70;3.67;;;4.30;99.90;;;;;;2048239;28;20758;-64
2024/03/20 01:18:50;;;;;;;5.60;3.27;;;4.30;99.90;;;;;;2055781;28;20281;-63
2024/03/20 01:19:51;;;;;;;4.60;2.97;;;4.30;99.90;;;;;;2056860;28;20602;-64
2024/03/20 01:20:51;;;;;;;4.80;3.10;;;4.20;99.90;;;;;;2057560;28;20250;-64
2024/03/20 01:21:52;;;;;;;3.57;3.07;;;4.30;99.90;;;;;;2067048;28;20237;-64
2024/03/20 01:22:53;;;;;;;4.20;2.90;;;4.30;99.90;;;;;;2057824;28;20230;-63
2024/03/20 01:23:54;;;;;;;3.17;2.33;;;4.20;99.90;;;;;;2056755;28;20237;-64
2024/03/20 01:24:54;;;;;;;3.80;3.20;;;4.20;99.90;;;;;;2065625;28;20264;-64
2024/03/20 01:25:55;;;;;;;3.50;2.80;;;4.20;99.90;;;;;;2066050;28;20607;-64
2024/03/20 01:26:56;;;;;;;2.73;2.07;;;4.10;99.90;;;;;;2065866;28;20613;-63
2024/03/20 01:27:57;;;;;;;3.10;2.70;;;4.10;99.90;;;;;;2064929;28;20262;-65
2024/03/20 01:28:57;;;;;;;3.80;2.80;;;4.10;99.90;;;;;;2064513;28;20238;-65
2024/03/20 01:29:58;;;;;;;3.10;2.50;;;4.10;99.90;;;;;;2065033;28;20265;-65
2024/03/20 01:30:59;;;;;;;2.77;2.47;;;4.20;99.90;;;;;;2064365;28;20234;-65
2024/03/20 01:32:00;;;;;;;3.37;2.50;;;4.10;99.90;;;;;;2055969;28;20291;-65
2024/03/20 01:33:01;;;;;;;3.47;2.40;;;4.10;99.90;;;;;;2046482;28;20259;-64
2024/03/20 01:34:02;;;;;;;3.27;2.70;;;4.10;99.90;;;;;;2055642;28;20579;-65
2024/03/20 01:35:03;;;;;;;3.77;2.93;;;4.10;99.90;;;;;;2064605;28;20713;-64
2024/03/20 01:36:04;;;;;;;3.47;2.50;;;4.10;99.90;;;;;;2055820;28;20255;-64
2024/03/20 01:37:05;;;;;;;3.15;2.63;;;4.10;99.90;;;;;;2055622;28;20187;-64
2024/03/20 01:38:05;;;;;;;3.77;2.90;;;4.10;99.90;;;;;;2064725;28;20181;-65
2024/03/20 01:39:06;;;;;;;2.40;2.20;;;4.10;99.90;;;;;;2055014;28;20190;-64
2024/03/20 01:40:09;;;;;;;3.65;2.90;;;4.10;99.90;;;;;;2055644;28;20203;-64
2024/03/20 01:41:09;;;;;;;3.28;2.47;;;4.10;99.90;;;;;;2047771;28;20246;-64
2024/03/20 01:42:10;;;;;;;2.90;2.50;;;4.10;99.90;;;;;;2056100;28;20175;-64
2024/03/20 01:43:21;;;;;;;2.77;2.43;;;4.10;99.90;;;;;;2064285;28;20193;-64
2024/03/20 01:44:21;;;;;;;2.58;2.17;;;4.10;99.90;;;;;;2056376;28;20239;-64
2024/03/20 01:45:22;;;;;;;4.20;2.40;;;4.10;99.90;;;;;;2048238;28;20234;-66
2024/03/20 01:46:34;;;;;;;3.23;2.07;;;4.10;99.90;;;;;;2042495;28;20231;-64
2024/03/20 01:47:35;;;;;;;4.40;2.72;;;4.10;99.90;;;;;;2048605;28;20308;-64
2024/03/20 01:48:36;;;;;;;3.77;2.40;;;4.10;99.90;;;;;;2047745;28;20228;-64
2024/03/20 01:49:37;;;;;;;4.35;2.85;;;4.10;99.90;;;;;;2047164;28;20723;-65
2024/03/20 01:50:38;;;;;;;2.57;2.03;;;4.00;99.90;;;;;;2055352;28;20233;-64
2024/03/20 01:51:40;;;;;;;3.40;2.38;;;4.00;99.90;;;;;;2056347;28;20239;-64
2024/03/20 01:52:55;;;;;;;5.13;2.90;;;4.10;99.90;;;;;;2046834;28;20241;-65
2024/03/20 01:53:58;;;;;;;3.85;2.60;;;4.10;99.90;;;;;;2049289;28;20235;-64
2024/03/20 01:54:59;;;;;;;2.95;2.60;;;4.10;99.90;;;;;;2047171;28;20326;-65
2024/03/20 01:55:59;;;;;;;3.60;2.37;;;4.10;99.90;;;;;;2045108;28;20258;-64
2024/03/20 01:57:00;;;;;;;2.50;2.20;;;4.10;99.90;;;;;;2054143;28;20226;-64
2024/03/20 01:58:01;;;;;;;2.30;2.00;;;4.10;99.90;;;;;;2051976;28;20223;-63
2024/03/20 01:59:02;;;;;;;2.60;2.17;;;4.00;99.90;;;;;;2052841;28;20191;-64
2024/03/20 02:00:03;;;;;;;3.00;2.47;;;4.00;99.90;;;;;;2053792;28;20202;-64
2024/03/20 02:01:04;;;;;;;3.95;2.60;;;4.10;99.90;;;;;;2053156;28;20198;-64
2024/03/20 02:02:05;;;;;;;3.35;2.40;;;4.10;99.90;;;;;;2053074;28;20178;-64
2024/03/20 02:03:06;;;;;;;3.00;2.10;;;4.10;99.90;;;;;;2046030;28;20229;-63
2024/03/20 02:04:07;;;;;;;3.03;2.40;;;4.00;99.90;;;;;;2049100;28;20250;-63
2024/03/20 02:05:08;;;;;;;2.85;2.45;;;4.10;99.90;;;;;;2061156;28;20187;-65
2024/03/20 02:06:28;;;;;;;2.70;2.50;;;4.00;99.90;;;;;;2055466;28;20182;-63
2024/03/20 02:07:29;;;;;;;2.42;2.20;;;4.00;99.90;;;;;;2050023;28;20702;-64
2024/03/20 02:08:31;;;;;;;2.50;2.30;;;4.00;99.90;;;;;;2045677;28;20255;-64
2024/03/20 02:09:31;;;;;;;3.75;3.03;;;4.00;99.90;;;;;;2045235;28;20235;-64
2024/03/20 02:10:32;;;;;;;2.30;2.10;;;4.00;99.90;;;;;;2052593;28;20257;-64
2024/03/20 02:11:33;;;;;;;2.87;2.13;;;4.00;99.90;;;;;;2061495;28;20241;-64
2024/03/20 02:12:34;;;;;;;2.72;2.38;;;4.00;99.90;;;;;;2053725;28;20266;-64
2024/03/20 02:13:43;;;;;;;2.20;2.00;;;4.00;99.90;;;;;;2045972;28;20231;-63
2024/03/20 02:14:43;;;;;;;4.22;2.55;;;4.00;99.90;;;;;;2043066;28;20230;-64
2024/03/20 02:15:44;;;;;;;3.13;2.30;;;4.00;99.90;;;;;;2044982;28;20757;-64
2024/03/20 02:16:45;;;;;;;2.90;2.23;;;4.00;99.90;;;;;;2045341;28;20231;-63
2024/03/20 02:17:46;;;;;;;3.27;2.40;;;4.00;99.90;;;;;;2052032;28;20235;-64
2024/03/20 02:18:49;;;;;;;3.93;2.33;;;4.00;99.90;;;;;;2060776;28;20236;-64
2024/03/20 02:19:49;;;;;;;2.38;2.13;;;4.00;99.90;;;;;;2061658;28;20320;-65
2024/03/20 02:20:50;;;;;;;2.90;2.23;;;4.00;99.90;;;;;;2062178;28;20843;-64
2024/03/20 02:21:51;;;;;;;2.93;2.03;;;4.00;99.90;;;;;;2061895;28;20612;-63
2024/03/20 02:22:52;;;;;;;2.47;2.27;;;4.00;99.90;;;;;;2051681;28;20237;-64
2024/03/20 02:23:52;;;;;;;2.50;2.07;;;4.00;99.90;;;;;;2044567;28;20275;-65
2024/03/20 02:24:53;;;;;;;2.93;2.40;;;4.00;99.90;;;;;;2052836;28;20231;-64
2024/03/20 02:25:54;;;;;;;3.20;2.40;;;4.00;99.90;;;;;;2052589;28;20254;-64
2024/03/20 02:26:54;;;;;;;2.33;1.80;;;3.90;99.90;;;;;;2053450;28;20234;-64
2024/03/20 02:27:56;;;;;;;2.30;1.70;;;3.90;99.90;;;;;;2053579;28;20235;-65
2024/03/20 02:28:57;;;;;;;2.38;2.15;;;3.90;99.90;;;;;;2054141;28;20297;-64
2024/03/20 02:29:58;;;;;;;3.07;2.20;;;3.90;99.90;;;;;;2063791;28;20733;-64
2024/03/20 02:30:59;;;;;;;2.53;2.13;;;3.90;99.90;;;;;;2060838;28;20226;-64
2024/03/20 02:32:00;;;;;;;2.53;1.98;;;3.90;99.90;;;;;;2049887;28;20227;-65
2024/03/20 02:33:00;;;;;;;2.60;2.20;;;3.90;99.90;;;;;;2045262;28;20235;-65
2024/03/20 02:34:01;;;;;;;2.47;1.87;;;3.90;99.90;;;;;;2052643;28;20233;-63
2024/03/20 02:35:02;;;;;;;2.37;1.93;;;3.90;99.90;;;;;;2062350;28;20658;-62
2024/03/20 02:36:04;;;;;;;2.65;2.20;;;3.90;99.90;;;;;;2063525;28;21657;-63
2024/03/20 02:37:05;;;;;;;3.28;2.10;;;3.90;99.90;;;;;;2056243;28;20253;-63
2024/03/20 02:38:06;;;;;;;2.47;2.27;;;3.90;99.90;;;;;;2055571;28;20229;-65
2024/03/20 02:39:07;;;;;;;2.20;1.90;;;3.80;99.90;;;;;;2063253;28;20191;-66
2024/03/20 02:40:09;;;;;;;2.57;1.80;;;3.90;99.90;;;;;;2060784;28;20181;-64
2024/03/20 02:41:10;;;;;;;2.70;2.28;;;3.80;99.90;;;;;;2045143;28;20186;-64
2024/03/20 02:42:11;;;;;;;3.03;2.13;;;3.80;99.90;;;;;;2045322;28;20204;-65
2024/03/20 02:43:12;;;;;;;3.37;2.17;;;3.90;99.90;;;;;;2062444;28;20179;-64
2024/03/20 02:44:14;;;;;;;3.70;2.57;;;3.90;99.90;;;;;;2061800;28;20183;-65
2024/03/20 02:45:15;;;;;;;3.55;2.25;;;3.90;99.90;;;;;;2061271;28;20189;-64
2024/03/20 02:46:15;;;;;;;2.20;1.70;;;3.90;99.90;;;;;;2062691;28;20189;-64
2024/03/20 02:47:17;;;;;;;2.63;2.13;;;3.90;99.90;;;;;;2062009;28;20189;-64
2024/03/20 02:48:17;;;;;;;3.70;2.33;;;3.90;99.90;;;;;;2053192;28;20650;-65
2024/03/20 02:49:18;;;;;;;2.47;2.07;;;3.90;99.90;;;;;;2053138;28;20194;-64
2024/03/20 02:50:19;;;;;;;2.87;2.17;;;3.90;99.90;;;;;;2061329;28;20248;-64
2024/03/20 02:51:19;;;;;;;2.73;2.30;;;3.90;99.90;;;;;;2062494;28;20221;-63
2024/03/20 02:52:20;;;;;;;3.40;2.47;;;4.00;99.90;;;;;;2055425;28;20294;-64
2024/03/20 02:53:21;;;;;;;3.47;2.30;;;3.90;99.90;;;;;;2054739;28;20689;-64
2024/03/20 02:54:22;;;;;;;2.60;1.97;;;3.90;99.90;;;;;;2061710;28;20245;-64
2024/03/20 02:55:22;;;;;;;2.07;1.87;;;3.90;99.90;;;;;;2062569;28;20232;-65
2024/03/20 02:56:23;;;;;;;4.10;2.67;;;3.90;99.90;;;;;;2063894;28;20765;-64
2024/03/20 02:57:24;;;;;;;3.00;2.20;;;3.90;99.90;;;;;;2062000;28;20241;-64
2024/03/20 02:58:24;;;;;;;3.43;2.07;;;3.90;99.90;;;;;;2062412;28;20233;-64
2024/03/20 02:59:25;;;;;;;3.40;1.90;;;3.90;99.90;;;;;;2061465;28;20666;-64
2024/03/20 03:00:27;;;;;;;2.80;2.50;;;3.90;99.90;;;;;;2061433;28;20234;-63
2024/03/20 03:01:28;;;;;;;3.28;2.60;;;3.90;99.90;;;;;;2050944;28;20646;-65
2024/03/20 03:02:28;;;;;;;3.73;2.00;;;3.90;99.90;;;;;;2054442;28;20252;-64
2024/03/20 03:03:29;;;;;;;2.30;1.90;;;3.80;99.90;;;;;;2061666;28;20923;-64
2024/03/20 03:04:30;;;;;;;2.50;1.90;;;3.80;99.90;;;;;;2061907;28;20241;-64
2024/03/20 03:05:30;;;;;;;3.40;2.10;;;3.80;99.90;;;;;;2060965;28;20241;-64
2024/03/20 03:06:31;;;;;;;3.63;2.10;;;3.80;99.90;;;;;;2052953;28;20886;-64
2024/03/20 03:07:32;;;;;;;2.93;2.10;;;3.80;99.90;;;;;;2053380;28;20241;-64
2024/03/20 03:08:32;;;;;;;2.37;2.07;;;3.70;99.90;;;;;;2061917;28;20238;-64
2024/03/20 03:09:33;;;;;;;2.03;1.77;;;3.80;99.90;;;;;;2052855;28;20248;-65
2024/03/20 03:10:34;;;;;;;2.87;2.20;;;3.80;99.90;;;;;;2052629;28;20285;-64
2024/03/20 03:11:36;;;;;;;2.37;2.10;;;3.70;99.90;;;;;;2062221;28;20260;-65
2024/03/20 03:12:37;;;;;;;3.90;2.20;;;3.70;99.90;;;;;;2061869;28;20325;-64
2024/03/20 03:13:37;;;;;;;2.27;1.90;;;3.70;99.90;;;;;;2061834;28;20463;-65
2024/03/20 03:14:38;;;;;;;2.77;2.10;;;3.80;99.90;;;;;;2062002;28;20229;-64
2024/03/20 03:15:39;;;;;;;2.30;1.77;;;3.80;99.90;;;;;;2062615;28;20236;-64
2024/03/20 03:16:39;;;;;;;2.50;1.80;;;3.70;99.90;;;;;;2062021;28;20233;-65
2024/03/20 03:17:41;;;;;;;3.27;2.20;;;3.70;99.90;;;;;;2061823;28;20716;-64
2024/03/20 03:18:42;;;;;;;2.17;1.85;;;3.70;99.90;;;;;;2061812;28;20222;-63
2024/03/20 03:19:43;;;;;;;3.25;2.28;;;3.70;99.90;;;;;;2057442;28;20226;-64
2024/03/20 03:20:43;;;;;;;2.83;2.10;;;3.70;99.90;;;;;;2056425;28;20836;-64
2024/03/20 03:21:44;;;;;;;2.53;2.20;;;3.70;99.90;;;;;;2054493;28;20243;-64
2024/03/20 03:22:45;;;;;;;2.37;2.10;;;3.70;99.90;;;;;;2045085;28;20321;-64
2024/03/20 03:23:46;;;;;;;2.17;1.58;;;3.70;99.90;;;;;;2045057;28;20231;-64
2024/03/20 03:24:47;;;;;;;2.67;2.20;;;3.70;99.90;;;;;;2054573;28;20227;-64
2024/03/20 03:25:48;;;;;;;2.50;1.70;;;3.60;99.90;;;;;;2061791;28;20261;-63
2024/03/20 03:26:49;;;;;;;2.87;2.10;;;3.70;99.90;;;;;;2062764;28;20229;-64
2024/03/20 03:27:49;;;;;;;2.20;2.00;;;3.70;99.90;;;;;;2059232;28;20229;-64
2024/03/20 03:28:50;;;;;;;2.93;1.87;;;3.70;99.90;;;;;;2061708;28;20376;-64
2024/03/20 03:29:51;;;;;;;2.58;1.85;;;3.70;99.90;;;;;;2052736;28;20250;-64
2024/03/20 03:30:52;;;;;;;2.23;1.80;;;3.70;99.90;;;;;;2052834;28;20261;-65
2024/03/20 03:31:52;;;;;;;2.70;1.97;;;3.70;99.90;;;;;;2060641;28;20647;-62
2024/03/20 03:32:53;;;;;;;2.00;1.73;;;3.70;99.90;;;;;;2052847;28;20242;-63
2024/03/20 03:33:54;;;;;;;3.80;2.10;;;3.70;99.90;;;;;;2052623;28;20234;-63
2024/03/20 03:34:54;;;;;;;2.80;2.07;;;3.70;99.90;;;;;;2053048;28;20234;-65
2024/03/20 03:36:06;;;;;;;3.40;2.00;;;3.70;99.90;;;;;;2052482;28;20242;-64
2024/03/20 03:37:07;;;;;;;2.22;1.95;;;3.70;99.90;;;;;;2060415;28;20273;-64
2024/03/20 03:38:08;;;;;;;1.93;1.73;;;3.60;99.90;;;;;;2053429;28;20190;-65
2024/03/20 03:39:10;;;;;;;2.40;1.70;;;3.60;99.90;;;;;;2045177;28;20257;-64
2024/03/20 03:40:11;;;;;;;1.63;1.42;;;3.60;99.90;;;;;;2050159;28;20187;-64
2024/03/20 03:41:12;;;;;;;2.90;1.97;;;3.70;99.90;;;;;;2063853;28;20968;-64
2024/03/20 03:42:15;;;;;;;3.13;1.83;;;3.60;99.90;;;;;;2061195;28;20228;-64
2024/03/20 03:43:15;;;;;;;2.35;1.90;;;3.60;99.90;;;;;;2062322;28;20191;-65
2024/03/20 03:44:16;;;;;;;1.93;1.70;;;3.60;99.90;;;;;;2061586;28;20189;-64
2024/03/20 03:45:17;;;;;;;3.20;2.30;;;3.60;99.90;;;;;;2061991;28;20189;-64
2024/03/20 03:46:18;;;;;;;1.90;1.70;;;3.60;99.90;;;;;;2062014;28;20424;-65
2024/03/20 03:47:18;;;;;;;3.07;1.80;;;3.60;99.90;;;;;;2061724;28;20188;-63
2024/03/20 03:48:19;;;;;;;2.17;1.90;;;3.60;99.90;;;;;;2061240;28;20669;-64
2024/03/20 03:49:20;;;;;;;4.13;1.60;;;3.60;99.90;;;;;;2054008;28;20830;-64
2024/03/20 03:50:20;;;;;;;2.30;1.80;;;3.60;99.90;;;;;;2054898;28;20238;-64
2024/03/20 03:51:21;;;;;;;2.10;1.90;;;3.50;99.90;;;;;;2056780;28;20249;-64
2024/03/20 03:52:22;;;;;;;2.10;1.73;;;3.50;99.90;;;;;;2062257;28;20331;-64
2024/03/20 03:53:23;;;;;;;2.27;1.50;;;3.60;99.90;;;;;;2060220;28;20297;-64
2024/03/20 03:54:24;;;;;;;2.70;1.87;;;3.50;99.90;;;;;;2061012;28;20237;-64
2024/03/20 03:55:24;;;;;;;2.90;2.00;;;3.50;99.90;;;;;;2050788;28;20235;-63
2024/03/20 03:56:25;;;;;;;1.87;1.60;;;3.60;99.90;;;;;;2053490;28;20776;-64
2024/03/20 03:57:26;;;;;;;2.13;1.80;;;3.60;99.90;;;;;;2053189;28;20249;-64
2024/03/20 03:58:26;;;;;;;2.10;1.90;;;3.60;99.90;;;;;;2042079;28;20579;-64
2024/03/20 03:59:27;;;;;;;2.77;2.17;;;3.50;99.90;;;;;;2052241;28;20319;-64
2024/03/20 04:00:28;;;;;;;1.90;1.70;;;3.50;99.90;;;;;;2060391;28;20244;-65
2024/03/20 04:01:28;;;;;;;2.03;1.77;;;3.50;99.90;;;;;;2059999;28;20232;-64
2024/03/20 04:02:31;;;;;;;2.03;1.80;;;3.50;99.90;;;;;;2060120;28;20260;-65
2024/03/20 04:03:32;;;;;;;2.90;1.40;;;3.50;99.90;;;;;;2060744;28;20241;-65
2024/03/20 04:04:33;;;;;;;1.70;1.60;;;3.50;99.90;;;;;;2060872;28;20709;-63
2024/03/20 04:05:35;;;;;;;2.80;1.83;;;3.40;99.90;;;;;;2061777;28;20292;-64
2024/03/20 04:06:35;;;;;;;3.08;1.80;;;3.50;99.90;;;;;;2061072;28;20245;-65
2024/03/20 04:07:36;;;;;;;2.43;2.00;;;3.50;99.90;;;;;;2059637;28;20896;-65
2024/03/20 04:08:38;;;;;;;2.20;2.00;;;3.50;99.90;;;;;;2061785;28;20233;-64
2024/03/20 04:09:39;;;;;;;2.25;1.90;;;3.50;99.90;;;;;;2060556;28;20233;-65
2024/03/20 04:10:40;;;;;;;2.53;2.07;;;3.40;99.90;;;;;;2060902;28;20245;-65
2024/03/20 04:11:41;;;;;;;3.03;2.10;;;3.40;99.90;;;;;;2060817;28;20225;-65
2024/03/20 04:12:42;;;;;;;3.30;2.55;;;3.40;99.90;;;;;;2051443;28;20237;-64
2024/03/20 04:13:42;;;;;;;2.53;2.33;;;3.40;99.90;;;;;;2052983;28;20327;-64
2024/03/20 04:14:43;;;;;;;2.63;2.27;;;3.40;99.90;;;;;;2061625;28;20261;-64
2024/03/20 04:15:44;;;;;;;2.87;2.20;;;3.40;99.90;;;;;;2061088;28;20288;-64
2024/03/20 04:16:45;;;;;;;2.90;2.60;;;3.40;99.90;;;;;;2049609;28;20235;-63
2024/03/20 04:17:46;;;;;;;2.90;2.10;;;3.40;99.90;;;;;;2049782;28;20269;-64
2024/03/20 04:18:46;;;;;;;3.40;2.57;;;3.40;99.90;;;;;;2063746;28;20697;-65
2024/03/20 04:19:47;;;;;;;2.30;2.03;;;3.30;99.90;;;;;;2063400;28;20239;-64
2024/03/20 04:20:48;;;;;;;3.27;2.20;;;3.40;99.90;;;;;;2062517;28;20269;-64
2024/03/20 04:21:49;;;;;;;2.73;2.00;;;3.40;99.90;;;;;;2064347;28;20225;-63
2024/03/20 04:22:50;;;;;;;3.03;2.10;;;3.40;99.90;;;;;;2064399;28;20234;-64
2024/03/20 04:23:51;;;;;;;3.13;2.17;;;3.40;99.90;;;;;;2062060;28;20245;-64
2024/03/20 04:24:52;;;;;;;3.30;2.43;;;3.40;99.90;;;;;;2063521;28;20222;-64
2024/03/20 04:25:52;;;;;;;3.07;2.10;;;3.40;99.90;;;;;;2062415;28;20312;-65
2024/03/20 04:26:53;;;;;;;2.40;2.20;;;3.40;99.90;;;;;;2064551;28;20228;-64
2024/03/20 04:27:54;;;;;;;3.10;2.47;;;3.40;99.90;;;;;;2062534;28;20705;-65
2024/03/20 04:28:55;;;;;;;2.85;1.92;;;3.40;99.90;;;;;;2061538;28;20768;-62
2024/03/20 04:29:56;;;;;;;2.30;2.10;;;3.40;99.90;;;;;;2063185;28;20232;-63
2024/03/20 04:30:57;;;;;;;2.60;2.13;;;3.40;99.90;;;;;;2062916;28;20222;-63
2024/03/20 04:31:58;;;;;;;3.15;2.08;;;3.40;99.90;;;;;;2053880;28;20264;-63
2024/03/20 04:32:58;;;;;;;3.10;2.40;;;3.30;99.90;;;;;;2046007;28;20261;-63
2024/03/20 04:33:59;;;;;;;2.33;2.13;;;3.30;99.90;;;;;;2042085;28;20306;-63
2024/03/20 04:35:01;;;;;;;2.80;2.10;;;3.40;99.90;;;;;;2054092;28;20758;-64
2024/03/20 04:36:05;;;;;;;2.30;2.10;;;3.30;99.90;;;;;;2050754;28;20272;-65
2024/03/20 04:37:06;;;;;;;2.45;1.77;;;3.40;99.90;;;;;;2046831;28;20613;-65
2024/03/20 04:38:06;;;;;;;2.30;1.90;;;3.30;99.90;;;;;;2053348;28;20229;-64
2024/03/20 04:39:07;;;;;;;2.33;1.80;;;3.40;99.90;;;;;;2062480;28;20637;-64
2024/03/20 04:40:09;;;;;;;2.23;1.77;;;3.30;99.90;;;;;;2062850;28;20568;-64
2024/03/20 04:41:10;;;;;;;2.78;1.70;;;3.30;99.90;;;;;;2062663;28;20554;-64
2024/03/20 04:42:12;;;;;;;3.60;1.73;;;3.30;99.90;;;;;;2062845;28;20190;-64
2024/03/20 04:43:13;;;;;;;4.38;2.00;;;3.30;99.90;;;;;;2062513;28;20197;-63
2024/03/20 04:44:13;;;;;;;1.80;1.70;;;3.30;99.90;;;;;;2063767;28;20277;-64
2024/03/20 04:45:14;;;;;;;1.90;1.60;;;3.30;99.90;;;;;;2062350;28;20208;-65
2024/03/20 04:46:15;;;;;;;2.30;1.90;;;3.30;99.90;;;;;;2063751;28;20300;-64
2024/03/20 04:47:16;;;;;;;2.40;1.65;;;3.30;99.90;;;;;;2058641;28;20190;-63
2024/03/20 04:48:17;;;;;;;2.23;1.70;;;3.30;99.90;;;;;;2063116;28;20740;-64
2024/03/20 04:49:17;;;;;;;1.97;1.57;;;3.30;99.90;;;;;;2063267;28;20181;-63
2024/03/20 04:50:18;;;;;;;2.10;1.87;;;3.30;99.90;;;;;;2067845;28;20254;-63
2024/03/20 04:51:19;;;;;;;4.00;1.80;;;3.30;99.90;;;;;;2067805;28;20634;-63
2024/03/20 04:52:20;;;;;;;2.63;1.80;;;3.30;99.90;;;;;;2055903;28;20218;-63
2024/03/20 04:53:20;;;;;;;1.77;1.60;;;3.20;99.90;;;;;;2039949;28;20195;-63
2024/03/20 04:54:21;;;;;;;2.30;1.87;;;3.20;99.90;;;;;;2038016;28;20991;-64
2024/03/20 04:55:22;;;;;;;3.13;2.33;;;3.20;99.90;;;;;;2053718;28;20233;-63
2024/03/20 04:56:23;;;;;;;3.10;2.50;;;3.30;99.90;;;;;;2066663;28;20241;-64
2024/03/20 04:57:23;;;;;;;3.17;2.50;;;3.20;99.90;;;;;;2066225;28;20237;-63
2024/03/20 04:58:24;;;;;;;7.43;4.80;;;3.20;99.90;;;;;;2065885;28;20294;-63
2024/03/20 04:59:25;;;;;;;5.57;3.07;;;3.20;99.90;;;;;;2065657;28;20242;-63
2024/03/20 05:00:25;;;;;;;4.57;2.73;;;3.10;99.90;;;;;;2058045;28;20236;-63
2024/03/20 05:01:26;;;;;;;5.17;2.97;;;3.10;99.90;;;;;;2058740;28;20237;-65
2024/03/20 05:02:27;;;;;;;5.17;3.80;;;3.20;99.90;;;;;;2062767;28;20240;-65
2024/03/20 05:03:27;;;;;;;4.90;3.40;;;3.20;99.90;;;;;;2053148;28;20707;-64
2024/03/20 05:04:28;;;;;;;5.13;3.00;;;3.20;99.90;;;;;;2053791;28;20237;-63
2024/03/20 05:05:29;;;;;;;3.83;2.93;;;3.20;99.90;;;;;;2062393;28;20316;-65
2024/03/20 05:06:29;;;;;;;5.70;3.47;;;3.20;99.90;;;;;;2062309;28;20317;-64
2024/03/20 05:07:30;;;;;;;3.57;2.70;;;3.20;99.90;;;;;;2062462;28;20245;-64
2024/03/20 05:08:31;;;;;;;3.20;2.90;;;3.20;99.90;;;;;;2062126;28;20703;-64
2024/03/20 05:09:31;;;;;;;4.33;2.80;;;3.20;99.90;;;;;;2053440;28;20324;-63
2024/03/20 05:10:32;;;;;;;3.70;3.00;;;3.20;99.90;;;;;;2053827;28;20276;-64
2024/03/20 05:11:33;;;;;;;4.20;2.97;;;3.20;99.90;;;;;;2063249;28;20332;-65
2024/03/20 05:12:34;;;;;;;3.03;2.10;;;3.20;99.90;;;;;;2062324;28;20324;-64
2024/03/20 05:13:34;;;;;;;3.73;3.07;;;3.20;99.90;;;;;;2062045;28;20241;-64
2024/03/20 05:14:35;;;;;;;5.00;3.70;;;3.20;99.90;;;;;;2054041;28;20265;-64
2024/03/20 05:15:39;;;;;;;4.77;3.77;;;3.20;99.90;;;;;;2053996;28;20318;-65
2024/03/20 05:16:40;;;;;;;4.25;3.50;;;3.20;99.90;;;;;;2055071;28;20243;-64
2024/03/20 05:17:41;;;;;;;4.47;3.47;;;3.20;99.90;;;;;;2053793;28;20226;-64
2024/03/20 05:18:41;;;;;;;3.20;2.77;;;3.20;99.90;;;;;;2053870;28;20743;-65
2024/03/20 05:19:43;;;;;;;5.80;3.20;;;3.20;99.90;;;;;;2057396;28;20229;-64
2024/03/20 05:20:43;;;;;;;4.18;3.38;;;3.20;99.90;;;;;;2053496;28;20237;-65
2024/03/20 05:21:44;;;;;;;5.20;3.50;;;3.10;99.90;;;;;;2054647;28;20333;-63
2024/03/20 05:22:45;;;;;;;3.20;2.47;;;3.20;99.90;;;;;;2062539;28;20238;-65